Greeneville, TN (37743)

5:21 PM EST on December 06, 2016 (GMT -0500)
Old Tusculum Rd | | Change Station

Elev 1644 ft 36.18 °N, 82.78 °W | Updated 10 seconds ago

Rain
Rain
48.2 °F
Feels Like 48 °F
N
2.3
Wind Variable Wind from SSW
Gusts 2.3 mph

Today
High -- | Low -- °F
--% Chance of Precip.
Yesterday
High -- | Low -- °F
Precip. -- in
Pressure 29.73 in
Visibility 2.0 miles
Clouds Overcast 1100 ft
Windchill 48 °F
Dew Point 48 °F
Humidity 99%
Rainfall 0.93 in
Snow Depth Not available.
7:28 AM 5:16 PM
Waxing Crescent, 45% visible
METAR KTRI 062153Z 00000KT 2SM OVC011 08/08 A2976 RMK AO2 SFC VIS 7 SLP068 T00780078
Pressure 29.73 in
Visibility 2.0 miles
Clouds Overcast 1100 ft
Windchill 48 °F
Dew Point 48 °F
Humidity 99%
Rainfall 0.93 in
Snow Depth Not available.
7:28 AM 5:16 PM
Waxing Crescent, 45% visible
METAR KTRI 062153Z 00000KT 2SM OVC011 08/08 A2976 RMK AO2 SFC VIS 7 SLP068 T00780078

10-Day Weather Forecast

Almanac

Astronomy

Dec. 06, 2016 Rise Set
Actual Time
Civil Twilight
Nautical Twilight
Astronomical Twilight
Moon
Length of Visible Light
Length of Day
Tomorrow will be .
, % of the Moon is Illuminated

Today's Extremes

State Highs State Lows

Community

WunderPhotos

Upload Photos

1,956,038 photos uploaded!

WunderBlog® & News

Nearby

Air Quality

  Air Quality AQ Index Pollutant
Not available.

Snow Depth

Station Depth Elevation

Earthquake Activity

City Distance Mag. Time & Date
Minimum magnitude displayed is 2.5.

Coastal Water Temperatures

Place Temperature

Stations

Nearby Weather Stations

Station Location Temp. Windchill Dew Point Humidity Wind Precip. Elev Updated Type
                   

Watches & Warnings

There are currently no watches in effect.